Time;durP1;ratioP1;P1;durP2;ratioP2;P2;SDS_P1;SDS_P2;PMS_P1;PMS_P2;Temp;Humidity;BMP_temperature;BMP_pressure;BME280_temperature;BME280_humidity;BME280_pressure;Samples;Min_cycle;Max_cycle;Signal;HPM_P1;HPM_P2
2023/09/27 00:01:12;;;;;;;34.38;23.15;;;;;;;8.76;100.00;100670.22;4934634;29;20099;-67
2023/09/27 00:03:39;;;;;;;33.05;23.15;;;;;;;8.69;100.00;100671.81;4934515;29;20483;-66
2023/09/27 00:06:06;;;;;;;35.08;24.33;;;;;;;8.64;100.00;100669.56;4934689;29;20054;-67
2023/09/27 00:08:32;;;;;;;31.45;24.40;;;;;;;8.63;100.00;100672.41;4935051;29;20048;-67
2023/09/27 00:10:59;;;;;;;32.50;24.15;;;;;;;8.68;100.00;100679.00;4934374;29;20063;-67
2023/09/27 00:13:25;;;;;;;30.13;23.52;;;;;;;8.71;100.00;100684.06;4934434;29;20044;-66
2023/09/27 00:15:52;;;;;;;37.95;25.55;;;;;;;8.69;100.00;100694.06;4934491;29;20134;-68
2023/09/27 00:18:19;;;;;;;31.92;23.75;;;;;;;8.70;100.00;100689.53;4937063;28;20393;-66
2023/09/27 00:20:45;;;;;;;37.95;25.40;;;;;;;8.76;100.00;100699.66;4953500;28;20053;-66
2023/09/27 00:23:12;;;;;;;37.75;26.20;;;;;;;8.70;100.00;100705.59;4953289;28;20051;-66
2023/09/27 00:25:38;;;;;;;36.40;25.23;;;;;;;8.73;100.00;100708.81;4953616;28;20069;-66
2023/09/27 00:28:05;;;;;;;37.90;25.58;;;;;;;8.77;100.00;100706.69;4952884;28;20397;-67
2023/09/27 00:30:34;;;;;;;38.60;26.50;;;;;;;8.68;100.00;100702.22;4953757;28;20051;-66
2023/09/27 00:33:01;;;;;;;38.30;26.08;;;;;;;8.65;100.00;100706.03;4957763;28;20039;-63
2023/09/27 00:35:28;;;;;;;40.97;24.88;;;;;;;8.69;100.00;100701.25;4968185;28;20047;-62
2023/09/27 00:37:54;;;;;;;36.95;25.45;;;;;;;8.70;100.00;100709.09;4968615;28;20078;-61
2023/09/27 00:40:23;;;;;;;36.42;26.17;;;;;;;8.72;100.00;100711.66;4953817;28;20066;-66
2023/09/27 00:42:49;;;;;;;33.33;25.95;;;;;;;8.67;100.00;100708.56;4952992;28;20098;-66
2023/09/27 00:45:17;;;;;;;41.10;25.90;;;;;;;8.54;100.00;100692.88;4952941;28;20055;-67
2023/09/27 00:47:47;;;;;;;39.55;26.33;;;;;;;8.11;100.00;100651.53;4953456;28;20459;-66
2023/09/27 00:50:14;;;;;;;35.00;25.58;;;;;;;8.04;100.00;100632.56;4952959;28;20055;-64
2023/09/27 00:52:44;;;;;;;35.75;24.65;;;;;;;8.09;100.00;100641.00;4964110;28;20070;-62
2023/09/27 00:55:12;;;;;;;35.78;25.35;;;;;;;8.13;100.00;100634.38;4967356;28;20043;-62
2023/09/27 00:57:42;;;;;;;34.15;26.17;;;;;;;8.17;100.00;100637.59;4954328;28;20055;-66
2023/09/27 01:00:10;;;;;;;39.30;26.63;;;;;;;8.17;100.00;100636.75;4952940;28;20060;-66
2023/09/27 01:02:41;;;;;;;41.80;27.30;;;;;;;8.05;100.00;100622.72;4951433;28;20063;-66
2023/09/27 01:08:54;;;;;;;36.80;26.90;;;;;;;8.11;100.00;100644.34;4921166;28;20471;-66
2023/09/27 01:11:21;;;;;;;38.78;26.73;;;;;;;8.04;100.00;100634.38;4951605;28;20186;-66
2023/09/27 01:13:47;;;;;;;41.08;27.67;;;;;;;7.95;100.00;100614.75;4951301;28;20050;-65
2023/09/27 01:16:14;;;;;;;42.58;28.27;;;;;;;7.83;100.00;100600.69;4951853;28;20055;-65
2023/09/27 01:18:42;;;;;;;41.90;27.27;;;;;;;7.78;100.00;100599.44;4946324;28;20071;-66
2023/09/27 01:21:08;;;;;;;39.45;26.70;;;;;;;7.80;100.00;100600.13;4932748;29;20052;-65
2023/09/27 01:23:39;;;;;;;41.70;29.27;;;;;;;7.79;100.00;100604.63;4932920;29;20111;-66
2023/09/27 01:26:07;;;;;;;35.72;26.98;;;;;;;7.61;100.00;100575.19;4932761;29;20102;-65
2023/09/27 01:28:33;;;;;;;39.55;27.13;;;;;;;7.70;100.00;100597.47;4932896;29;20487;-66
2023/09/27 01:31:00;;;;;;;38.33;26.85;;;;;;;7.69;100.00;100597.63;4932575;29;20106;-65
2023/09/27 01:33:27;;;;;;;38.72;27.65;;;;;;;7.62;100.00;100589.34;4931062;29;20071;-65
2023/09/27 01:35:56;;;;;;;40.10;28.92;;;;;;;7.70;100.00;100605.50;4931908;29;20047;-65
2023/09/27 01:38:23;;;;;;;38.70;26.65;;;;;;;7.65;100.00;100603.25;4931965;29;20469;-65
2023/09/27 01:40:49;;;;;;;40.90;27.83;;;;;;;7.63;100.00;100599.03;4931601;29;20126;-66
2023/09/27 01:43:16;;;;;;;42.80;28.58;;;;;;;7.58;100.00;100595.97;4931645;28;20102;-66
2023/09/27 01:45:42;;;;;;;43.10;28.63;;;;;;;7.55;100.00;100597.09;4932341;29;20051;-67
2023/09/27 01:48:09;;;;;;;46.03;28.77;;;;;;;7.48;100.00;100576.47;4931710;29;20047;-66
2023/09/27 01:50:36;;;;;;;39.45;28.42;;;;;;;7.38;100.00;100566.63;4932057;29;20056;-66
2023/09/27 01:53:03;;;;;;;42.65;29.42;;;;;;;7.24;100.00;100544.91;4933417;29;20054;-65
2023/09/27 01:55:31;;;;;;;41.50;28.40;;;;;;;7.27;100.00;100553.47;4932236;28;20068;-66
2023/09/27 01:57:57;;;;;;;38.85;28.33;;;;;;;7.26;100.00;100554.47;4931995;29;20078;-67
2023/09/27 02:00:24;;;;;;;41.75;29.48;;;;;;;7.26;100.00;100556.28;4931690;29;20052;-65
2023/09/27 02:02:58;;;;;;;42.63;28.85;;;;;;;7.13;100.00;100536.06;4931593;29;20047;-66
2023/09/27 02:05:27;;;;;;;37.53;29.25;;;;;;;7.10;100.00;100527.50;4930418;29;20059;-66
2023/09/27 02:07:54;;;;;;;45.38;29.95;;;;;;;7.05;100.00;100519.94;4931298;28;20411;-66
2023/09/27 02:10:21;;;;;;;40.42;28.25;;;;;;;7.04;100.00;100518.25;4931696;29;20055;-67
2023/09/27 02:12:48;;;;;;;40.15;28.77;;;;;;;7.09;100.00;100531.19;4931449;29;20420;-67
2023/09/27 02:15:16;;;;;;;43.55;29.27;;;;;;;7.01;100.00;100517.69;4931142;29;20439;-66
2023/09/27 02:17:43;;;;;;;41.40;29.80;;;;;;;6.87;100.00;100500.28;4930772;29;20445;-68
2023/09/27 02:20:14;;;;;;;41.25;29.48;;;;;;;6.14;100.00;100385.25;4949471;28;20050;-67
2023/09/27 02:22:41;;;;;;;43.50;29.90;;;;;;;5.49;100.00;100284.63;4949903;28;20106;-67
2023/09/27 02:25:11;;;;;;;41.72;29.58;;;;;;;5.42;100.00;100286.16;4953960;28;20044;-62
2023/09/27 02:27:40;;;;;;;45.35;30.27;;;;;;;4.69;100.00;100179.19;4965032;28;20043;-61
2023/09/27 02:30:12;;;;;;;42.67;30.52;;;;;;;4.14;100.00;100088.44;4965214;28;20047;-63
2023/09/27 02:32:40;;;;;;;49.05;32.13;;;;;;;3.75;100.00;100013.94;4964327;28;20365;-61
2023/09/27 02:35:15;;;;;;;45.78;30.80;;;;;;;3.69;100.00;100010.97;4965433;28;20047;-62
2023/09/27 02:37:43;;;;;;;47.60;30.35;;;;;;;3.80;100.00;100035.63;4963950;28;20396;-61
2023/09/27 02:40:14;;;;;;;47.88;30.13;;;;;;;3.76;100.00;100034.22;4964245;28;20047;-64
2023/09/27 02:42:42;;;;;;;42.47;30.73;;;;;;;4.02;100.00;100078.88;4965046;28;20074;-62
2023/09/27 02:45:09;;;;;;;43.33;30.33;;;;;;;3.98;100.00;100080.13;4963814;28;20051;-62
2023/09/27 02:47:36;;;;;;;42.90;30.00;;;;;;;4.08;100.00;100094.28;4963356;28;20046;-66
2023/09/27 02:50:05;;;;;;;47.15;29.65;;;;;;;4.12;100.00;100108.13;4965509;28;20055;-62
2023/09/27 02:52:32;;;;;;;49.80;30.85;;;;;;;3.99;100.00;100100.38;4967908;28;20073;-63
2023/09/27 02:54:58;;;;;;;40.72;30.20;;;;;;;3.88;100.00;100087.19;4966545;28;20047;-61
2023/09/27 02:57:25;;;;;;;41.75;30.63;;;;;;;3.50;100.00;100031.16;4968010;28;20053;-62
2023/09/27 02:59:52;;;;;;;51.72;31.88;;;;;;;3.21;100.00;99980.63;4967615;28;20479;-64
2023/09/27 03:02:20;;;;;;;41.17;30.45;;;;;;;3.12;100.00;99966.34;4968550;28;20111;-62
2023/09/27 03:04:47;;;;;;;42.05;30.77;;;;;;;3.01;100.00;99957.63;4967627;28;20074;-63
2023/09/27 03:07:15;;;;;;;44.10;30.75;;;;;;;3.06;100.00;99964.19;4966917;28;20130;-61
2023/09/27 03:09:41;;;;;;;50.35;30.63;;;;;;;3.01;100.00;99952.31;4967117;28;20130;-61
2023/09/27 03:12:08;;;;;;;46.80;30.73;;;;;;;3.05;100.00;99949.28;4967536;28;20071;-63
2023/09/27 03:14:35;;;;;;;45.60;31.67;;;;;;;3.13;100.00;99965.38;4968085;28;20050;-61
2023/09/27 03:17:01;;;;;;;39.55;29.58;;;;;;;3.13;100.00;99967.16;4967569;29;20043;-62
2023/09/27 03:19:28;;;;;;;41.30;29.65;;;;;;;3.07;100.00;99946.50;4955675;28;20050;-63
2023/09/27 03:21:54;;;;;;;47.00;31.25;;;;;;;3.18;100.00;99957.03;4938530;29;20055;-67
2023/09/27 03:24:21;;;;;;;44.63;30.85;;;;;;;2.71;100.00;99882.41;4934320;29;20043;-67
2023/09/27 03:26:48;;;;;;;46.95;30.27;;;;;;;2.56;100.00;99847.50;4933733;29;20072;-67
2023/09/27 03:29:14;;;;;;;42.88;29.27;;;;;;;2.48;100.00;99846.44;4934039;29;20095;-67
2023/09/27 03:31:41;;;;;;;42.97;30.73;;;;;;;2.53;100.00;99846.91;4934338;29;20047;-67
2023/09/27 03:34:07;;;;;;;40.75;28.55;;;;;;;2.42;100.00;99847.81;4934468;29;20040;-67
2023/09/27 03:36:34;;;;;;;44.03;30.13;;;;;;;2.21;100.00;99826.66;4934608;29;20082;-67
2023/09/27 03:39:01;;;;;;;39.03;28.85;;;;;;;0.81;100.00;99598.56;4935042;29;20488;-67
2023/09/27 03:41:30;;;;;;;40.60;29.48;;;;;;;-0.30;100.00;99419.34;4934014;29;20143;-69
2023/09/27 03:43:57;;;;;;;41.17;29.83;;;;;;;-2.19;100.00;99114.94;4933823;29;20127;-71
2023/09/27 03:46:23;;;;;;;45.47;30.25;;;;;;;-4.65;100.00;98714.88;4933325;29;20054;-68
2023/09/27 03:48:50;;;;;;;42.50;30.40;;;;;;;-6.77;100.00;98374.94;4934012;29;20496;-68
2023/09/27 03:51:24;;;;;;;44.40;29.80;;;;;;;-7.90;100.00;98210.91;4933900;29;20147;-70
2023/09/27 03:53:52;;;;;;;47.40;33.47;;;;;;;-7.74;100.00;98241.91;4933664;29;20229;-71
2023/09/27 03:56:19;;;;;;;50.85;31.95;;;;;;;-7.01;100.00;98358.38;4933174;29;20460;-69
2023/09/27 03:58:46;;;;;;;41.67;29.58;;;;;;;-6.63;100.00;98418.28;4934100;28;20501;-69
2023/09/27 04:01:15;;;;;;;47.80;31.58;;;;;;;-6.66;100.00;98411.50;4933028;29;20075;-69
2023/09/27 04:03:42;;;;;;;44.35;30.48;;;;;;;-7.03;100.00;98336.81;4933274;29;20095;-69
2023/09/27 04:06:08;;;;;;;47.67;30.45;;;;;;;-7.30;100.00;98305.69;4933546;29;20095;-70
2023/09/27 04:08:35;;;;;;;47.40;30.40;;;;;;;-7.38;100.00;98285.41;4934385;29;20382;-70
2023/09/27 04:11:08;;;;;;;41.03;28.48;;;;;;;-6.88;100.00;98382.66;4934542;29;20138;-70
2023/09/27 04:13:35;;;;;;;39.75;26.67;;;;;;;-5.75;100.00;98575.53;4932846;29;20052;-69
2023/09/27 04:16:03;;;;;;;40.75;28.55;;;;;;;-6.10;100.00;98515.41;4933616;29;20052;-69
2023/09/27 04:18:30;;;;;;;40.55;27.77;;;;;;;-5.97;100.00;98544.91;4937492;28;20047;-70
2023/09/27 04:21:05;;;;;;;43.67;28.38;;;;;;;-5.87;100.00;98573.81;4952089;28;20455;-69
2023/09/27 04:23:33;;;;;;;42.67;26.95;;;;;;;-6.77;100.00;98426.22;4952912;28;20055;-70
2023/09/27 04:26:01;;;;;;;39.63;26.33;;;;;;;-7.05;100.00;98393.41;4953714;28;20051;-64
2023/09/27 04:28:27;;;;;;;51.85;36.75;;;;;;;-6.38;100.00;98495.63;4953159;28;20043;-64
2023/09/27 04:30:54;;;;;;;46.72;27.83;;;;;;;-6.23;100.00;98522.41;4952892;28;20496;-69
2023/09/27 04:33:21;;;;;;;62.53;33.40;;;;;;;-6.31;100.00;98512.53;4952766;28;20059;-70
2023/09/27 04:35:48;;;;;;;50.92;28.70;;;;;;;-5.01;100.00;98724.44;4952760;28;20408;-70
2023/09/27 04:38:16;;;;;;;38.17;26.48;;;;;;;-4.80;100.00;98764.72;4952479;28;20051;-70
2023/09/27 04:40:42;;;;;;;33.75;24.25;;;;;;;-3.73;100.00;98949.00;4952518;28;20053;-70
2023/09/27 04:43:09;;;;;;;34.10;24.42;;;;;;;-3.75;100.00;98943.06;4952120;28;20094;-70
2023/09/27 04:45:37;;;;;;;33.90;24.00;;;;;;;-3.94;100.00;98920.81;4951920;28;20102;-67
2023/09/27 04:48:05;;;;;;;35.65;25.08;;;;;;;-3.15;100.00;99044.31;4952781;28;20412;-69
2023/09/27 04:50:33;;;;;;;37.10;23.80;;;;;;;-3.42;100.00;99010.47;4952124;28;20071;-70
2023/09/27 04:53:00;;;;;;;34.47;24.42;;;;;;;-2.92;100.00;99087.22;4952525;28;20039;-71
2023/09/27 04:55:27;;;;;;;39.10;25.42;;;;;;;-3.04;100.00;99070.59;4952396;28;20051;-70
2023/09/27 04:57:54;;;;;;;52.22;25.83;;;;;;;-2.99;100.00;99084.22;4952274;28;20054;-70
2023/09/27 05:00:22;;;;;;;47.03;26.77;;;;;;;-3.04;100.00;99073.22;4952221;28;20405;-69
2023/09/27 05:02:50;;;;;;;57.78;27.15;;;;;;;-2.94;100.00;99099.59;4952468;28;20135;-71
2023/09/27 05:05:16;;;;;;;41.28;26.90;;;;;;;-2.92;100.00;99118.72;4951689;28;20428;-70
2023/09/27 05:07:44;;;;;;;36.50;25.08;;;;;;;-2.81;100.00;99132.69;4952727;28;20047;-69
2023/09/27 05:10:12;;;;;;;61.08;25.33;;;;;;;-2.89;100.00;99121.94;4951658;28;20389;-71
2023/09/27 05:12:39;;;;;;;46.47;24.27;;;;;;;-2.50;100.00;99192.59;4950111;28;20054;-70
2023/09/27 05:15:07;;;;;;;44.53;25.67;;;;;;;-2.26;100.00;99237.19;4951969;28;20074;-68
2023/09/27 05:17:34;;;;;;;55.90;27.13;;;;;;;-2.35;100.00;99226.41;4952459;28;20419;-69
2023/09/27 05:20:06;;;;;;;51.00;26.58;;;;;;;-2.39;100.00;99224.97;4952081;28;20044;-70
2023/09/27 05:22:33;;;;;;;42.60;25.50;;;;;;;-2.45;100.00;99217.53;4949611;29;20078;-70
2023/09/27 05:25:00;;;;;;;51.53;24.05;;;;;;;-2.16;100.00;99269.72;4952025;28;20043;-71
2023/09/27 05:27:26;;;;;;;42.95;25.48;;;;;;;-2.00;100.00;99299.13;4951154;28;20059;-71
2023/09/27 05:29:53;;;;;;;51.10;24.58;;;;;;;-1.87;100.00;99320.09;4951744;28;20114;-71
2023/09/27 05:32:20;;;;;;;43.60;24.15;;;;;;;-1.92;100.00;99317.81;4951777;28;20051;-70
2023/09/27 05:34:46;;;;;;;43.13;25.80;;;;;;;-1.75;100.00;99347.22;4951940;28;20487;-70
2023/09/27 05:37:14;;;;;;;49.13;23.35;;;;;;;-1.64;100.00;99366.53;4950924;28;20114;-70
2023/09/27 05:39:41;;;;;;;49.78;24.67;;;;;;;-1.52;100.00;99392.84;4951814;28;20058;-70
2023/09/27 05:42:07;;;;;;;51.28;25.65;;;;;;;-1.92;100.00;99307.28;4951539;28;20075;-66
2023/09/27 05:44:34;;;;;;;51.47;24.33;;;;;;;-1.92;100.00;99315.19;4952981;28;20448;-64
2023/09/27 05:47:00;;;;;;;42.88;24.83;;;;;;;-2.08;100.00;99288.38;4951712;28;20068;-64
2023/09/27 05:49:27;;;;;;;49.90;32.28;;;;;;;-2.03;100.00;99301.97;4951353;28;20089;-64
2023/09/27 05:51:55;;;;;;;38.78;25.50;;;;;;;-1.73;100.00;99350.59;4951529;28;20051;-67
2023/09/27 05:54:22;;;;;;;43.08;22.77;;;;;;;-1.69;100.00;99367.81;4951679;28;20107;-68
2023/09/27 05:56:51;;;;;;;41.05;23.65;;;;;;;-1.92;100.00;99335.38;4951272;28;20515;-68
2023/09/27 05:59:18;;;;;;;35.50;23.15;;;;;;;-1.21;100.00;99452.72;4951038;28;20055;-67
2023/09/27 06:01:47;;;;;;;46.75;23.85;;;;;;;-1.35;100.00;99437.13;4951297;28;20409;-67
2023/09/27 06:04:13;;;;;;;48.97;23.23;;;;;;;-1.24;100.00;99452.09;4951601;28;20456;-67
2023/09/27 06:06:40;;;;;;;46.42;25.40;;;;;;;-1.36;100.00;99448.63;4950914;28;20411;-67
2023/09/27 06:09:09;;;;;;;49.60;25.30;;;;;;;-1.38;100.00;99434.72;4951681;28;20054;-67
2023/09/27 06:11:35;;;;;;;37.10;25.27;;;;;;;-1.55;100.00;99396.53;4951657;28;20506;-68
2023/09/27 06:14:05;;;;;;;36.15;24.67;;;;;;;-1.42;100.00;99415.72;4951524;28;20047;-67
2023/09/27 06:16:38;;;;;;;40.53;26.55;;;;;;;-1.50;100.00;99396.22;4952202;28;20047;-66
2023/09/27 06:19:08;;;;;;;40.50;24.17;;;;;;;-1.61;100.00;99378.59;4941786;28;20139;-67
2023/09/27 06:21:35;;;;;;;37.58;24.17;;;;;;;-1.50;100.00;99391.78;4932108;29;20047;-67
2023/09/27 06:24:01;;;;;;;41.17;23.45;;;;;;;-1.59;100.00;99358.28;4931097;29;20047;-65
2023/09/27 06:26:28;;;;;;;40.78;23.85;;;;;;;-1.46;100.00;99374.81;4934209;29;20043;-65
2023/09/27 06:28:55;;;;;;;32.08;22.73;;;;;;;-1.30;100.00;99392.03;4935531;29;20047;-64
2023/09/27 06:31:25;;;;;;;36.28;24.42;;;;;;;-1.08;100.00;99400.00;4935943;29;20098;-64
2023/09/27 06:33:52;;;;;;;46.53;24.65;;;;;;;-0.71;100.00;99447.16;4935734;29;20415;-66
2023/09/27 06:36:21;;;;;;;33.03;22.52;;;;;;;-0.37;100.00;99473.50;4935909;29;20075;-64
2023/09/27 06:38:48;;;;;;;35.53;21.77;;;;;;;-0.21;100.00;99479.25;4935720;29;20055;-65
2023/09/27 06:41:15;;;;;;;46.28;22.00;;;;;;;7.84;100.00;100769.81;4935479;29;20059;-64
2023/09/27 06:43:42;;;;;;;38.00;21.48;;;;;;;7.84;100.00;100751.94;4936072;29;20596;-65
2023/09/27 06:46:10;;;;;;;32.45;19.20;;;;;;;7.98;100.00;100725.78;4936215;29;20370;-65
2023/09/27 06:48:37;;;;;;;31.42;19.92;;;;;;;8.49;100.00;100764.66;4935981;29;20052;-66
2023/09/27 06:51:05;;;;;;;31.35;20.30;;;;;;;9.03;100.00;100813.88;4936130;29;20044;-64
2023/09/27 06:53:32;;;;;;;34.13;19.92;;;;;;;10.06;100.00;100914.47;4936103;29;20126;-64
2023/09/27 06:55:59;;;;;;;37.13;18.98;;;;;;;11.15;100.00;101024.31;4935011;29;20122;-65
2023/09/27 06:58:26;;;;;;;27.15;18.27;;;;;;;11.89;100.00;101104.41;4935504;28;20059;-65
2023/09/27 07:00:54;;;;;;;33.97;16.80;;;;;;;12.78;100.00;101191.94;4935422;29;20473;-65
2023/09/27 07:03:24;;;;;;;43.00;17.65;;;;;;;13.98;100.00;101335.41;4934525;29;20130;-64
2023/09/27 07:05:52;;;;;;;27.47;16.90;;;;;;;14.37;100.00;101373.34;4935454;29;20086;-65
2023/09/27 07:08:19;;;;;;;35.75;18.50;;;;;;;14.71;100.00;101405.56;4935172;29;20052;-64
2023/09/27 07:10:47;;;;;;;34.33;16.15;;;;;;;14.90;100.00;101427.81;4934581;29;20457;-65
2023/09/27 07:13:13;;;;;;;33.80;16.42;;;;;;;14.86;100.00;101429.19;4935061;29;20367;-66
2023/09/27 07:15:40;;;;;;;31.35;17.27;;;;;;;15.05;100.00;101430.66;4934635;29;20048;-64
2023/09/27 07:18:07;;;;;;;32.00;16.85;;;;;;;15.48;100.00;101438.28;4935115;29;20511;-65
2023/09/27 07:20:36;;;;;;;32.05;16.73;;;;;;;15.91;100.00;101468.53;4936039;29;20047;-70
2023/09/27 07:23:04;;;;;;;28.63;16.63;;;;;;;16.66;100.00;101497.72;4935356;29;20098;-66
2023/09/27 07:25:34;;;;;;;26.90;14.88;;;;;;;16.92;100.00;101518.19;4934927;29;20043;-65
2023/09/27 07:28:05;;;;;;;27.30;15.38;;;;;;;17.38;100.00;101523.53;4935316;29;20114;-64
2023/09/27 07:30:35;;;;;;;26.45;16.00;;;;;;;17.54;100.00;101517.88;4934742;29;20102;-70
2023/09/27 07:33:11;;;;;;;37.20;14.55;;;;;;;17.91;100.00;101515.25;4935248;29;20082;-66
2023/09/27 07:35:43;;;;;;;23.02;14.55;;;;;;;18.16;100.00;101507.66;4934114;29;20059;-64
2023/09/27 07:38:13;;;;;;;22.40;14.10;;;;;;;18.50;100.00;101517.84;4933180;28;20401;-64
2023/09/27 07:40:44;;;;;;;17.42;11.18;;;;;;;18.62;100.00;101515.44;4934539;29;20126;-65
2023/09/27 07:43:11;;;;;;;27.13;15.23;;;;;;;18.89;100.00;101520.09;4934006;29;20051;-65
2023/09/27 07:45:42;;;;;;;29.25;14.95;;;;;;;19.02;100.00;101528.41;4936653;29;20051;-66
2023/09/27 07:48:09;;;;;;;25.47;14.77;;;;;;;18.87;100.00;101530.34;4934122;29;20058;-64
2023/09/27 07:50:37;;;;;;;25.33;14.27;;;;;;;18.49;100.00;101532.47;4934622;29;20362;-66
2023/09/27 07:53:08;;;;;;;35.25;19.23;;;;;;;19.07;100.00;101527.81;4934365;29;20098;-64
2023/09/27 07:55:50;;;;;;;23.77;12.65;;;;;;;19.65;100.00;101533.00;4934836;29;20048;-65
2023/09/27 07:58:18;;;;;;;24.00;14.40;;;;;;;19.81;100.00;101538.16;4934314;29;20051;-64
2023/09/27 08:00:45;;;;;;;23.50;13.75;;;;;;;20.03;100.00;101540.78;4933517;29;20055;-65
2023/09/27 08:03:12;;;;;;;20.27;11.98;;;;;;;20.20;100.00;101533.91;4933995;29;20050;-65
2023/09/27 08:05:43;;;;;;;29.00;14.15;;;;;;;20.46;100.00;101535.94;4934232;29;20043;-65
2023/09/27 08:08:12;;;;;;;21.00;14.20;;;;;;;20.48;100.00;101539.28;4934669;29;20052;-66
2023/09/27 08:10:45;;;;;;;30.00;12.50;;;;;;;20.23;100.00;101533.50;4934400;29;20047;-66
2023/09/27 08:13:14;;;;;;;22.88;12.90;;;;;;;20.30;100.00;101528.09;4934094;29;20403;-64
2023/09/27 08:15:42;;;;;;;22.23;11.50;;;;;;;20.30;100.00;101539.00;4934714;29;20055;-64
2023/09/27 08:18:09;;;;;;;25.92;10.93;;;;;;;20.61;100.00;101542.03;4936056;28;20052;-64
2023/09/27 08:20:36;;;;;;;24.60;11.32;;;;;;;20.87;100.00;101543.97;4953883;28;20488;-65
2023/09/27 08:23:04;;;;;;;22.92;10.57;;;;;;;20.82;100.00;101541.00;4953069;28;20047;-64
2023/09/27 08:25:31;;;;;;;16.20;10.82;;;;;;;20.85;100.00;101548.78;4953526;28;20051;-66
2023/09/27 08:28:01;;;;;;;20.33;9.85;;;;;;;21.40;100.00;101543.13;4952960;28;20098;-64
2023/09/27 08:30:27;;;;;;;21.58;10.10;;;;;;;21.87;100.00;101545.75;4953714;28;20059;-65
2023/09/27 08:32:54;;;;;;;20.38;10.25;;;;;;;21.95;100.00;101551.00;4953382;28;20102;-65
2023/09/27 08:35:20;;;;;;;21.23;8.98;;;;;;;22.48;100.00;101550.75;4953350;28;20083;-65
2023/09/27 08:37:47;;;;;;;30.15;10.02;;;;;;;23.07;100.00;101544.03;4952224;28;20098;-65
2023/09/27 08:40:15;;;;;;;17.23;9.95;;;;;;;23.30;97.47;101548.06;4953308;28;20043;-64
2023/09/27 08:42:43;;;;;;;20.80;9.63;;;;;;;23.38;93.94;101542.28;4953663;28;20420;-65
2023/09/27 08:45:13;;;;;;;23.40;9.35;;;;;;;23.82;90.04;101543.13;4953386;28;20047;-68
2023/09/27 08:47:43;;;;;;;20.60;9.95;;;;;;;23.40;92.19;101537.41;4953384;28;20500;-69
2023/09/27 08:50:13;;;;;;;21.77;8.20;;;;;;;23.33;92.74;101542.97;4954283;28;20463;-71
2023/09/27 08:52:48;;;;;;;12.35;7.50;;;;;;;23.38;87.70;101545.03;4954408;28;20047;-70
2023/09/27 08:55:19;;;;;;;21.15;8.13;;;;;;;24.09;82.82;101544.47;4954486;28;20097;-70
2023/09/27 08:57:47;;;;;;;14.88;7.93;;;;;;;24.56;73.91;101539.19;4954564;28;20047;-70
2023/09/27 09:00:20;;;;;;;22.75;6.38;;;;;;;25.39;70.65;101534.66;4954269;28;20433;-70
2023/09/27 09:02:49;;;;;;;20.05;7.05;;;;;;;25.54;65.54;101536.91;4954564;28;20055;-70
2023/09/27 09:05:18;;;;;;;17.63;7.50;;;;;;;25.53;62.60;101540.75;4953177;28;20150;-72
2023/09/27 09:07:45;;;;;;;19.13;7.07;;;;;;;26.38;59.13;101536.50;4953018;28;20065;-68
2023/09/27 09:10:13;;;;;;;18.38;6.75;;;;;;;26.45;57.96;101538.03;4953901;28;20043;-70
2023/09/27 09:12:41;;;;;;;19.10;6.38;;;;;;;26.11;58.60;101531.56;4953320;28;20047;-69
2023/09/27 09:15:27;;;;;;;25.52;8.05;;;;;;;26.68;56.49;101536.22;4953715;28;20051;-71
2023/09/27 09:17:57;;;;;;;15.55;7.13;;;;;;;27.22;54.12;101523.66;4953341;28;20036;-73
2023/09/27 09:20:32;;;;;;;13.75;6.13;;;;;;;27.55;51.12;101529.34;4916238;29;20052;-69
2023/09/27 09:23:06;;;;;;;19.60;6.68;;;;;;;27.47;53.35;101527.88;4915233;29;20047;-70
2023/09/27 09:25:43;;;;;;;17.45;6.30;;;;;;;27.16;53.99;101521.88;4916448;29;20476;-71
2023/09/27 09:28:10;;;;;;;16.13;6.80;;;;;;;27.11;53.45;101523.75;4915680;29;20048;-70
2023/09/27 09:30:40;;;;;;;17.45;5.93;;;;;;;28.10;51.05;101522.91;4915838;29;20044;-71
2023/09/27 09:33:15;;;;;;;17.55;5.30;;;;;;;26.90;53.11;101517.06;4916289;29;20070;-69
2023/09/27 09:35:42;;;;;;;15.07;5.60;;;;;;;29.01;48.95;101513.84;4915579;29;20067;-71
2023/09/27 09:38:09;;;;;;;18.83;5.45;;;;;;;28.47;47.22;101509.25;4914715;29;20080;-70
2023/09/27 09:40:54;;;;;;;20.27;6.38;;;;;;;29.22;46.27;101518.44;4916529;29;20094;-69
2023/09/27 09:43:37;;;;;;;14.80;6.15;;;;;;;28.36;47.28;101501.94;4915462;29;20056;-71
2023/09/27 09:46:06;;;;;;;11.23;5.70;;;;;;;27.12;50.28;101500.63;4916197;29;20090;-64
2023/09/27 09:48:34;;;;;;;18.02;6.20;;;;;;;29.84;46.40;101501.09;4913973;29;20067;-70
2023/09/27 09:51:03;;;;;;;10.70;5.13;;;;;;;29.33;45.64;101497.22;4914543;29;20067;-69
2023/09/27 09:53:30;;;;;;;16.55;7.95;;;;;;;29.51;44.76;101501.50;4915384;29;20048;-72
2023/09/27 09:56:00;;;;;;;17.83;5.68;;;;;;;29.22;43.79;101493.59;4915726;29;20044;-71
2023/09/27 09:58:54;;;;;;;18.45;5.93;;;;;;;29.82;43.55;101502.47;4915116;29;20394;-72
2023/09/27 10:01:26;;;;;;;8.88;5.85;;;;;;;30.00;43.86;101492.84;4913435;29;20418;-65
2023/09/27 10:03:55;;;;;;;13.38;5.43;;;;;;;31.31;40.07;101484.88;4914133;29;20539;-65
2023/09/27 10:06:22;;;;;;;12.32;5.07;;;;;;;30.22;40.42;101489.84;4913983;29;20068;-64
2023/09/27 10:09:05;;;;;;;7.43;4.37;;;;;;;29.47;42.05;101479.06;4914473;29;20453;-66
2023/09/27 10:11:33;;;;;;;11.25;4.88;;;;;;;29.55;41.41;101480.50;4914325;29;20123;-66
2023/09/27 10:14:04;;;;;;;9.65;3.80;;;;;;;29.33;42.46;101477.88;4915755;29;20052;-63
2023/09/27 10:16:30;;;;;;;10.43;4.30;;;;;;;29.73;41.80;101470.88;4926023;29;20055;-64
2023/09/27 10:18:57;;;;;;;15.88;5.05;;;;;;;27.60;46.57;101466.06;4941493;28;20137;-63
2023/09/27 10:21:24;;;;;;;16.48;6.03;;;;;;;29.51;43.36;101473.84;4964530;28;20069;-64
2023/09/27 10:23:53;;;;;;;13.40;5.20;;;;;;;30.85;40.39;101468.31;4964751;28;20047;-62
2023/09/27 10:26:28;;;;;;;8.35;4.05;;;;;;;29.76;40.00;101462.88;4964496;28;20134;-63
2023/09/27 10:29:03;;;;;;;11.95;4.90;;;;;;;29.19;42.79;101457.38;4965136;28;20047;-62
2023/09/27 10:31:30;;;;;;;15.70;5.05;;;;;;;27.74;46.51;101454.38;4964964;28;20051;-65
2023/09/27 10:33:57;;;;;;;16.30;5.38;;;;;;;29.05;45.35;101455.06;4964999;28;20051;-63
2023/09/27 10:36:24;;;;;;;21.02;4.43;;;;;;;28.62;45.42;101450.59;4963100;28;20115;-62
2023/09/27 10:38:50;;;;;;;10.82;4.40;;;;;;;28.46;45.26;101457.06;4964556;28;20063;-63
2023/09/27 10:41:31;;;;;;;10.40;4.50;;;;;;;28.27;45.70;101448.31;4964639;28;20188;-63
2023/09/27 10:43:59;;;;;;;8.77;4.25;;;;;;;28.57;43.78;101445.84;4964625;28;20055;-63
2023/09/27 10:46:26;;;;;;;12.82;4.70;;;;;;;27.54;46.78;101442.25;4957437;28;20455;-71
2023/09/27 10:48:59;;;;;;;13.30;4.00;;;;;;;27.22;46.86;101443.75;4953523;28;20122;-63
2023/09/27 10:51:26;;;;;;;15.43;4.53;;;;;;;27.67;46.44;101442.72;4965232;28;20083;-63
2023/09/27 10:53:53;;;;;;;10.85;4.50;;;;;;;27.02;48.86;101441.53;4963861;28;20058;-65
2023/09/27 10:56:20;;;;;;;12.88;4.18;;;;;;;25.94;50.80;101440.78;4963320;28;20039;-64
2023/09/27 10:58:51;;;;;;;13.05;5.47;;;;;;;25.56;53.18;101439.44;4964233;28;20099;-62
2023/09/27 11:01:19;;;;;;;14.30;5.60;;;;;;;27.05;50.65;101436.63;4955371;28;20518;-66
2023/09/27 11:03:46;;;;;;;10.55;4.18;;;;;;;26.93;48.78;101436.72;4951838;28;20047;-65
2023/09/27 11:06:14;;;;;;;7.32;3.90;;;;;;;26.65;48.65;101432.13;4951765;28;20047;-67
2023/09/27 11:08:41;;;;;;;7.63;3.75;;;;;;;26.99;48.70;101422.75;4952075;28;20403;-66
2023/09/27 11:11:11;;;;;;;11.63;4.25;;;;;;;27.32;48.42;101420.22;4945736;28;20047;-67
2023/09/27 11:13:45;;;;;;;8.70;4.13;;;;;;;27.19;47.41;101416.72;4961347;28;20054;-66
2023/09/27 11:16:14;;;;;;;10.23;3.88;;;;;;;26.16;49.75;101424.41;4954039;28;20038;-66
2023/09/27 11:18:48;;;;;;;14.43;4.05;;;;;;;24.34;55.36;101420.94;4951861;28;20056;-71
2023/09/27 11:21:16;;;;;;;9.95;4.10;;;;;;;24.83;56.82;101416.13;4936024;29;20055;-65